createdAt,value
2022-08-20T00:01:58.173Z,100919.56
2022-08-20T00:04:45.953Z,100828.22
2022-08-20T00:07:33.457Z,100922.38
2022-08-20T00:10:22.790Z,100800.72
2022-08-20T00:13:15.549Z,100782.94
2022-08-20T00:16:07.221Z,100894.69
2022-08-20T00:18:54.649Z,100820.13
2022-08-20T00:21:42.127Z,100912.25
2022-08-20T00:24:29.886Z,100847.63
2022-08-20T00:27:17.265Z,100915.34
2022-08-20T00:30:08.450Z,100793.09
2022-08-20T00:33:01.549Z,100903.84
2022-08-20T00:35:52.666Z,100789.19
2022-08-20T00:38:43.420Z,100856.91
2022-08-20T00:41:31.098Z,100894.75
2022-08-20T00:44:22.566Z,100857.09
2022-08-20T00:47:11.201Z,100922.50
2022-08-20T00:49:58.700Z,100934.06
2022-08-20T00:52:50.919Z,100938.75
2022-08-20T00:55:38.902Z,100931.25
2022-08-20T00:58:28.884Z,100933.09
2022-08-20T01:01:16.794Z,100924.09
2022-08-20T01:04:05.471Z,100922.03
2022-08-20T01:06:55.988Z,100920.44
2022-08-20T01:09:57.952Z,100817.75
2022-08-20T01:12:48.092Z,100826.41
2022-08-20T01:15:43.947Z,100860.22
2022-08-20T01:18:31.620Z,100789.25
2022-08-20T01:21:33.534Z,100920.09
2022-08-20T01:24:28.440Z,100753.81
2022-08-20T01:27:16.112Z,100926.69
2022-08-20T01:30:06.810Z,100918.44
2022-08-20T01:32:55.270Z,100915.09
2022-08-20T01:35:43.360Z,100822.91
2022-08-20T01:38:30.854Z,100849.91
2022-08-20T01:41:36.770Z,100874.28
2022-08-20T01:44:25.414Z,100843.63
2022-08-20T01:47:17.450Z,100919.88
2022-08-20T01:50:17.937Z,100881.66
2022-08-20T01:53:43.119Z,100895.94
2022-08-20T01:56:32.074Z,100859.00
2022-08-20T01:59:19.620Z,100882.75
2022-08-20T02:02:08.406Z,100892.25
2022-08-20T02:04:58.614Z,100897.66
2022-08-20T02:07:46.402Z,100869.75
2022-08-20T02:10:33.878Z,100867.50
2022-08-20T02:13:21.910Z,100931.53
2022-08-20T02:16:09.417Z,100906.78
2022-08-20T02:19:01.888Z,100874.69
2022-08-20T02:21:55.441Z,100915.00
2022-08-20T02:24:43.949Z,100918.56
2022-08-20T02:27:31.791Z,100927.91
2022-08-20T02:30:27.766Z,100930.03
2022-08-20T02:33:17.898Z,100875.13
2022-08-20T02:36:06.071Z,100760.28
2022-08-20T02:38:54.816Z,100825.09
2022-08-20T02:41:42.274Z,100930.06
2022-08-20T02:44:30.546Z,100817.81
2022-08-20T02:47:17.967Z,100892.28
2022-08-20T02:50:08.089Z,100816.25
2022-08-20T02:52:55.876Z,100925.28
2022-08-20T02:55:43.663Z,100824.47
2022-08-20T02:58:31.353Z,100842.66
2022-08-20T03:01:19.079Z,100835.53
2022-08-20T03:04:06.485Z,100895.31
2022-08-20T03:06:54.045Z,100825.03
2022-08-20T03:09:41.822Z,100849.91
2022-08-20T03:12:29.410Z,100797.00
2022-08-20T03:15:17.445Z,100869.16
2022-08-20T03:18:05.344Z,100857.59
2022-08-20T03:20:52.838Z,100924.81
2022-08-20T03:23:43.276Z,100857.13
2022-08-20T03:26:30.917Z,100844.44
2022-08-20T03:29:19.429Z,100856.25
2022-08-20T03:32:39.107Z,100849.09
2022-08-20T03:46:26.830Z,100834.66
2022-08-20T03:49:14.736Z,100875.66
2022-08-20T03:52:03.882Z,100849.09
2022-08-20T03:54:51.352Z,100887.69
2022-08-20T03:57:48.737Z,100837.72
2022-08-20T04:00:41.431Z,100907.06
2022-08-20T04:03:28.858Z,100894.28
2022-08-20T04:06:16.537Z,100861.44
2022-08-20T04:09:04.538Z,100918.72
2022-08-20T04:11:54.238Z,100838.81
2022-08-20T04:14:41.666Z,100880.38
2022-08-20T04:17:28.949Z,100873.72
2022-08-20T04:20:22.684Z,100893.00
2022-08-20T04:30:23.346Z,100939.56
2022-08-20T04:33:11.830Z,100856.09
2022-08-20T04:36:05.283Z,100865.00
2022-08-20T04:38:59.207Z,100937.59
2022-08-20T04:42:10.231Z,100861.22
2022-08-20T04:45:00.841Z,100810.94
2022-08-20T04:47:49.780Z,100792.94
2022-08-20T04:50:39.061Z,100945.78
2022-08-20T04:53:28.004Z,100937.91
2022-08-20T04:56:15.359Z,100878.28
2022-08-20T04:59:03.175Z,100943.50
2022-08-20T05:01:50.461Z,100925.97
2022-08-20T05:04:38.145Z,100895.22
2022-08-20T05:07:26.063Z,100907.63
2022-08-20T05:10:15.479Z,100969.84
2022-08-20T05:13:02.622Z,100970.44
2022-08-20T05:15:51.018Z,100910.47
2022-08-20T05:18:38.362Z,100894.38
2022-08-20T05:21:25.654Z,100886.88
2022-08-20T05:24:12.989Z,100938.50
2022-08-20T05:27:01.272Z,100979.53
2022-08-20T05:29:48.582Z,100947.66
2022-08-20T05:32:44.730Z,100914.75
2022-08-20T05:35:38.474Z,100934.53
2022-08-20T05:38:28.865Z,100942.88
2022-08-20T05:41:28.848Z,100958.75
2022-08-20T05:44:18.668Z,100982.50
2022-08-20T05:47:06.133Z,100943.25
2022-08-20T05:49:54.011Z,100952.66
2022-08-20T05:52:42.256Z,100914.53
2022-08-20T05:55:32.602Z,100978.06
2022-08-20T05:58:26.656Z,100989.06
2022-08-20T06:01:14.042Z,100957.94
2022-08-20T06:04:20.463Z,100925.41
2022-08-20T06:07:07.839Z,100962.94
2022-08-20T06:09:55.145Z,100937.69
2022-08-20T06:12:44.414Z,100940.19
2022-08-20T06:15:33.857Z,101009.56
2022-08-20T06:18:28.650Z,100959.50
2022-08-20T06:21:16.126Z,100988.69
2022-08-20T06:24:03.894Z,100963.09
2022-08-20T06:26:59.496Z,101000.63
2022-08-20T06:29:47.494Z,100977.59
2022-08-20T06:32:35.181Z,100935.88
2022-08-20T06:35:23.072Z,100941.13
2022-08-20T06:38:12.772Z,100975.06
2022-08-20T06:41:00.101Z,101018.88
2022-08-20T06:43:47.370Z,100952.06
2022-08-20T06:46:36.177Z,100990.34
2022-08-20T06:49:23.543Z,100961.09
2022-08-20T06:52:11.633Z,101026.06
2022-08-20T06:55:00.027Z,100969.94
2022-08-20T06:57:48.342Z,101027.03
2022-08-20T07:00:38.076Z,101036.47
2022-08-20T07:03:26.118Z,101033.09
2022-08-20T07:06:14.373Z,101032.75
2022-08-20T07:09:01.695Z,101037.34
2022-08-20T07:11:49.205Z,101035.53
2022-08-20T07:14:36.746Z,101034.19
2022-08-20T07:17:24.961Z,101042.53
2022-08-20T07:20:15.331Z,101039.41
2022-08-20T07:23:02.885Z,101040.09
2022-08-20T07:25:50.633Z,101045.63
2022-08-20T07:28:37.954Z,101045.63
2022-08-20T07:31:43.660Z,101043.81
2022-08-20T07:34:35.357Z,101043.81
2022-08-20T07:37:23.787Z,101042.94
2022-08-20T07:40:14.331Z,101035.94
2022-08-20T07:43:02.904Z,101045.34
2022-08-20T07:45:58.388Z,101052.50
2022-08-20T07:48:49.489Z,101054.66
2022-08-20T07:51:37.331Z,101055.00
2022-08-20T07:54:24.590Z,101060.69
2022-08-20T07:57:12.925Z,101048.78
2022-08-20T08:00:00.303Z,101048.97
2022-08-20T08:02:47.651Z,101052.72
2022-08-20T08:05:38.295Z,101060.13
2022-08-20T08:08:28.913Z,101051.66
2022-08-20T08:11:16.989Z,101052.72
2022-08-20T08:14:06.566Z,101061.66
2022-08-20T08:16:57.188Z,101063.00
2022-08-20T08:19:49.017Z,101054.13
2022-08-20T08:22:36.341Z,101068.06
2022-08-20T08:25:23.667Z,101071.75
2022-08-20T08:28:11.711Z,101057.09
2022-08-20T08:30:59.020Z,101065.66
2022-08-20T08:33:46.383Z,101074.97
2022-08-20T08:36:33.674Z,101070.31
2022-08-20T08:39:22.127Z,101081.53
2022-08-20T08:42:34.174Z,101085.03
2022-08-20T08:45:22.330Z,101080.19
2022-08-20T08:48:18.266Z,101087.38
2022-08-20T08:51:11.823Z,101098.25
2022-08-20T08:54:04.588Z,101095.25
2022-08-20T08:56:54.330Z,101101.56
2022-08-20T08:59:58.347Z,101096.63
2022-08-20T09:03:09.661Z,101097.25
2022-08-20T09:06:04.968Z,101104.53
2022-08-20T09:09:04.525Z,101116.19
2022-08-20T09:12:03.213Z,101105.19
2022-08-20T09:14:51.408Z,101116.28
2022-08-20T09:17:38.656Z,101112.13
2022-08-20T09:20:27.142Z,101108.53
2022-08-20T09:23:14.650Z,101122.28
2022-08-20T09:26:01.957Z,101112.81
2022-08-20T09:28:52.312Z,101127.16
2022-08-20T09:31:39.744Z,101120.25
2022-08-20T09:34:27.105Z,101117.75
2022-08-20T09:37:15.494Z,101116.84
2022-08-20T09:40:04.979Z,101103.50
2022-08-20T09:42:52.341Z,101118.84
2022-08-20T09:45:39.656Z,101122.66
2022-08-20T09:48:29.602Z,101124.28
2022-08-20T09:51:19.409Z,101136.03
2022-08-20T09:54:06.852Z,101127.38
2022-08-20T09:56:54.126Z,101123.19
2022-08-20T09:59:41.685Z,101129.66
2022-08-20T10:02:28.985Z,101095.47
2022-08-20T10:05:16.393Z,101123.63
2022-08-20T10:08:08.638Z,101127.56
2022-08-20T10:10:55.951Z,101120.69
2022-08-20T10:13:43.240Z,101129.63
2022-08-20T10:16:30.801Z,101128.19
2022-08-20T10:19:18.086Z,101141.06
2022-08-20T10:22:06.111Z,101122.81
2022-08-20T10:24:53.464Z,101147.44
2022-08-20T10:27:40.722Z,101146.75
2022-08-20T10:30:28.120Z,101144.41
2022-08-20T10:33:15.733Z,101137.81
2022-08-20T10:36:10.115Z,101142.06
2022-08-20T10:38:57.785Z,101149.19
2022-08-20T10:41:45.029Z,101141.59
2022-08-20T10:44:32.421Z,101147.25
2022-08-20T10:47:28.476Z,101145.31
2022-08-20T10:50:19.784Z,101143.47
2022-08-20T10:53:07.063Z,101138.41
2022-08-20T10:55:55.517Z,101137.81
2022-08-20T10:58:43.045Z,101122.28
2022-08-20T11:01:36.159Z,101141.31
2022-08-20T11:04:24.096Z,101146.19
2022-08-20T11:07:55.484Z,101148.09
2022-08-20T11:10:34.054Z,101143.06
2022-08-20T11:13:21.987Z,101131.41
2022-08-20T11:16:09.293Z,101136.44
2022-08-20T11:18:57.035Z,101141.06
2022-08-20T11:21:44.346Z,101140.13
2022-08-20T11:24:31.589Z,101121.72
2022-08-20T11:27:26.512Z,101134.78
2022-08-20T11:30:21.086Z,101132.34
2022-08-20T11:33:08.436Z,101142.50
2022-08-20T11:35:55.892Z,101139.47
2022-08-20T11:38:43.168Z,101137.72
2022-08-20T11:41:30.484Z,101138.09
2022-08-20T11:44:21.081Z,101141.81
2022-08-20T11:47:20.827Z,101140.72
2022-08-20T11:50:12.576Z,101139.03
2022-08-20T11:53:01.137Z,101141.06
2022-08-20T11:55:49.524Z,101140.41
2022-08-20T11:58:36.957Z,101142.91
2022-08-20T12:01:24.562Z,101142.25
2022-08-20T12:04:11.852Z,101137.50
2022-08-20T12:07:08.127Z,101142.59
2022-08-20T12:09:55.731Z,101135.16
2022-08-20T12:12:43.030Z,101140.34
2022-08-20T12:15:30.514Z,101133.50
2022-08-20T12:18:17.814Z,101141.16
2022-08-20T12:21:05.222Z,101127.81
2022-08-20T12:23:52.661Z,101131.97
2022-08-20T12:26:39.966Z,101132.66
2022-08-20T12:29:27.705Z,101136.34
2022-08-20T12:32:15.140Z,101137.72
2022-08-20T12:35:02.497Z,101137.34
2022-08-20T12:37:50.533Z,101137.19
2022-08-20T12:40:38.024Z,101130.69
2022-08-20T12:43:25.569Z,101144.13
2022-08-20T12:46:12.922Z,101132.25
2022-08-20T12:49:00.170Z,101127.72
2022-08-20T12:51:47.421Z,101122.25
2022-08-20T12:54:35.477Z,101133.56
2022-08-20T12:57:34.388Z,101129.16
2022-08-20T13:00:29.357Z,101124.81
2022-08-20T13:03:17.302Z,101117.84
2022-08-20T13:06:04.679Z,101122.63
2022-08-20T13:08:51.957Z,101119.97
2022-08-20T13:11:39.258Z,101119.16
2022-08-20T13:14:26.766Z,101119.16
2022-08-20T13:17:17.583Z,101113.56
2022-08-20T13:20:07.825Z,101118.06
2022-08-20T13:22:55.291Z,101107.69
2022-08-20T13:25:42.617Z,101110.09
2022-08-20T13:28:30.240Z,101113.38
2022-08-20T13:31:17.537Z,101108.53
2022-08-20T13:34:05.863Z,101102.84
2022-08-20T13:36:55.182Z,101097.03
2022-08-20T13:39:43.176Z,101101.91
2022-08-20T13:42:30.701Z,101111.22
2022-08-20T13:45:18.016Z,101104.94
2022-08-20T13:48:09.088Z,101103.28
2022-08-20T13:51:01.929Z,101070.13
2022-08-20T13:53:54.349Z,101104.56
2022-08-20T13:56:41.704Z,101108.91
2022-08-20T13:59:28.950Z,101108.72
2022-08-20T14:04:52.336Z,101104.38
2022-08-20T14:07:39.673Z,101103.19
2022-08-20T14:10:31.214Z,101113.38
2022-08-20T14:13:22.709Z,101100.88
2022-08-20T14:16:21.382Z,101100.41
2022-08-20T14:19:15.005Z,101094.91
2022-08-20T14:22:02.253Z,101094.38
2022-08-20T14:24:50.036Z,101100.94
2022-08-20T14:27:37.870Z,101095.66
2022-08-20T14:30:29.093Z,101094.34
2022-08-20T14:33:16.453Z,101099.94
2022-08-20T14:36:04.208Z,101089.72
2022-08-20T14:38:51.500Z,101092.50
2022-08-20T14:41:38.821Z,101099.97
2022-08-20T14:44:26.080Z,101094.44
2022-08-20T14:47:19.236Z,101089.66
2022-08-20T14:50:13.261Z,101095.69
2022-08-20T14:53:01.410Z,101092.16
2022-08-20T14:55:48.681Z,101091.09
2022-08-20T14:58:35.952Z,101090.97
2022-08-20T15:01:23.277Z,101086.06
2022-08-20T15:04:10.562Z,101080.25
2022-08-20T15:06:57.839Z,101084.91
2022-08-20T15:09:52.245Z,101070.53
2022-08-20T15:12:39.536Z,101087.13
2022-08-20T15:15:30.407Z,101086.34
2022-08-20T15:18:18.430Z,101078.22
2022-08-20T15:21:05.702Z,101076.56
2022-08-20T15:23:57.626Z,101079.66
2022-08-20T15:26:44.987Z,101076.63
2022-08-20T15:29:32.249Z,101075.53
2022-08-20T15:32:20.490Z,101079.41
2022-08-20T15:35:09.905Z,101074.41
2022-08-20T15:37:58.065Z,101074.13
2022-08-20T15:40:45.219Z,101078.00
2022-08-20T15:43:33.666Z,101075.72
2022-08-20T15:46:20.913Z,101074.91
2022-08-20T15:49:12.342Z,101080.19
2022-08-20T15:51:59.633Z,101076.88
2022-08-20T15:54:47.870Z,101071.63
2022-08-20T15:58:07.901Z,101073.84
2022-08-20T16:01:24.341Z,101083.84
2022-08-20T16:04:33.756Z,101082.44
2022-08-20T16:07:54.543Z,101063.06
2022-08-20T16:10:58.820Z,101078.78
2022-08-20T16:13:53.164Z,101077.34
2022-08-20T16:16:43.080Z,101072.28
2022-08-20T16:19:56.070Z,101075.38
2022-08-20T16:22:45.987Z,101067.59
2022-08-20T16:26:02.245Z,101078.09
2022-08-20T16:29:21.449Z,101074.75
2022-08-20T16:32:30.896Z,101074.16
2022-08-20T16:35:35.015Z,101076.38
2022-08-20T16:38:36.353Z,101075.53
2022-08-20T16:41:27.565Z,101075.75
2022-08-20T16:44:29.749Z,101075.72
2022-08-20T16:47:17.360Z,101070.72
2022-08-20T16:50:20.359Z,101067.91
2022-08-20T16:53:18.312Z,101069.56
2022-08-20T16:56:05.671Z,101057.38
2022-08-20T16:58:52.917Z,101056.25
2022-08-20T17:01:40.366Z,101065.09
2022-08-20T17:04:27.641Z,101052.06
2022-08-20T17:07:29.647Z,101065.06
2022-08-20T17:10:29.609Z,101065.56
2022-08-20T17:13:16.825Z,101062.75
2022-08-20T17:16:07.584Z,101062.47
2022-08-20T17:19:27.775Z,101071.00
2022-08-20T17:22:18.977Z,101070.41
2022-08-20T17:25:19.669Z,101065.94
2022-08-20T17:28:19.256Z,101065.31
2022-08-20T17:31:06.774Z,101073.03
2022-08-20T17:33:54.072Z,101074.13
2022-08-20T17:36:51.571Z,101053.59
2022-08-20T17:39:48.271Z,101076.31
2022-08-20T17:42:51.209Z,101091.19
2022-08-20T17:45:44.639Z,101080.59
2022-08-20T17:48:46.774Z,101080.56
2022-08-20T17:51:38.475Z,101078.88
2022-08-20T17:54:39.066Z,101084.91
2022-08-20T17:57:33.094Z,101089.28
2022-08-20T18:00:25.539Z,101092.56
2022-08-20T18:03:23.577Z,101098.56
2022-08-20T18:06:19.945Z,101100.72
2022-08-20T18:09:16.734Z,101103.44
2022-08-20T18:12:21.754Z,101094.53
2022-08-20T18:15:24.632Z,101098.31
2022-08-20T18:18:37.344Z,101106.50
2022-08-20T18:22:23.509Z,101099.56
2022-08-20T18:25:32.640Z,101096.06
2022-08-20T18:28:33.186Z,101101.78
2022-08-20T18:31:50.486Z,101110.56
2022-08-20T18:34:40.305Z,101108.50
2022-08-20T18:37:27.641Z,101117.44
2022-08-20T18:40:33.583Z,101111.88
2022-08-20T18:43:31.447Z,101109.53
2022-08-20T18:46:22.247Z,101106.72
2022-08-20T18:49:12.761Z,101112.22
2022-08-20T18:52:13.525Z,101099.13
2022-08-20T18:55:05.055Z,101107.06
2022-08-20T18:58:04.049Z,101106.31
2022-08-20T19:00:53.120Z,101103.91
2022-08-20T19:03:49.551Z,101116.66
2022-08-20T19:06:44.262Z,101107.75
2022-08-20T19:09:46.671Z,101110.41
2022-08-20T19:12:46.018Z,101114.53
2022-08-20T19:15:36.115Z,101112.53
2022-08-20T19:18:30.273Z,101116.56
2022-08-20T19:21:24.831Z,101116.78
2022-08-20T19:24:16.307Z,101114.19
2022-08-20T19:27:07.366Z,101120.84
2022-08-20T19:29:56.746Z,101112.34
2022-08-20T19:32:52.732Z,101111.19
2022-08-20T19:35:40.272Z,101115.78
2022-08-20T19:38:27.529Z,101109.47
2022-08-20T19:41:28.159Z,101120.66
2022-08-20T19:44:42.729Z,101114.31
2022-08-20T19:47:36.973Z,101125.78
2022-08-20T19:50:30.014Z,101124.72
2022-08-20T19:53:30.790Z,101124.63
2022-08-20T19:56:21.166Z,101123.44
2022-08-20T19:59:15.879Z,101125.50
2022-08-20T20:02:05.984Z,101124.19
2022-08-20T20:05:09.830Z,101120.75
2022-08-20T20:07:58.487Z,101130.22
2022-08-20T20:10:54.148Z,101133.38
2022-08-20T20:13:44.331Z,101132.03
2022-08-20T20:16:33.413Z,101130.38
2022-08-20T20:19:26.909Z,101130.13
2022-08-20T20:22:22.400Z,101121.41
2022-08-20T20:25:12.691Z,101125.47
2022-08-20T20:28:11.044Z,101121.31
2022-08-20T20:31:10.659Z,101127.41
2022-08-20T20:34:01.737Z,101132.66
2022-08-20T20:36:59.610Z,101126.94
2022-08-20T20:40:00.265Z,101134.34
2022-08-20T20:43:06.216Z,101125.75
2022-08-20T20:46:14.265Z,101130.28
2022-08-20T20:49:27.683Z,101127.13
2022-08-20T20:52:34.030Z,101124.75
2022-08-20T20:55:22.846Z,101128.28
2022-08-20T20:58:10.127Z,101119.81
2022-08-20T21:00:57.394Z,101112.88
2022-08-20T21:03:44.668Z,101117.25
2022-08-20T21:06:31.913Z,101117.88
2022-08-20T21:09:21.018Z,101124.44
2022-08-20T21:12:10.057Z,101118.97
2022-08-20T21:14:57.367Z,101120.31
2022-08-20T21:17:44.657Z,101121.63
2022-08-20T21:20:32.989Z,101128.53
2022-08-20T21:23:20.345Z,101132.72
2022-08-20T21:26:28.015Z,101126.56
2022-08-20T21:29:24.067Z,101134.72
2022-08-20T21:32:13.021Z,101131.25
2022-08-20T21:35:02.831Z,101141.16
2022-08-20T21:37:50.153Z,101139.00
2022-08-20T21:40:37.624Z,101137.00
2022-08-20T21:43:25.350Z,101143.09
2022-08-20T21:46:12.741Z,101141.91
2022-08-20T21:49:00.633Z,101136.66
2022-08-20T21:51:50.719Z,101141.75
2022-08-20T21:54:37.978Z,101137.19
2022-08-20T21:57:30.950Z,101132.53
2022-08-20T22:00:40.996Z,101132.06
2022-08-20T22:03:35.047Z,101134.41
2022-08-20T22:06:25.897Z,101127.19
2022-08-20T22:09:13.857Z,101139.38
2022-08-20T22:12:01.413Z,101146.09
2022-08-20T22:14:49.323Z,101146.78
2022-08-20T22:17:36.901Z,101152.72
2022-08-20T22:20:24.193Z,101140.78
2022-08-20T22:23:11.909Z,101131.94
2022-08-20T22:25:59.256Z,101135.28
2022-08-20T22:28:51.090Z,101137.41
2022-08-20T22:31:41.513Z,101145.88
2022-08-20T22:34:31.906Z,101151.25
2022-08-20T22:37:19.286Z,101148.50
2022-08-20T22:40:07.306Z,101144.50
2022-08-20T22:42:54.754Z,101146.44
2022-08-20T22:45:44.584Z,101144.28
2022-08-20T22:48:32.113Z,101144.28
2022-08-20T22:51:24.327Z,101146.06
2022-08-20T22:54:16.492Z,101153.75
2022-08-20T22:57:04.931Z,101132.63
2022-08-20T22:59:56.219Z,101144.78
2022-08-20T23:02:46.088Z,101144.19
2022-08-20T23:05:35.544Z,101145.25
2022-08-20T23:08:22.785Z,101143.41
2022-08-20T23:11:14.369Z,101146.88
2022-08-20T23:14:01.630Z,101142.31
2022-08-20T23:16:55.273Z,101151.19
2022-08-20T23:19:46.822Z,101149.44
2022-08-20T23:22:34.704Z,101146.03
2022-08-20T23:25:21.968Z,101129.59
2022-08-20T23:28:09.940Z,101137.56
2022-08-20T23:30:57.242Z,101144.88
2022-08-20T23:33:45.027Z,101145.50
2022-08-20T23:36:32.573Z,101148.59
2022-08-20T23:39:20.342Z,101144.19
2022-08-20T23:42:07.657Z,101139.78
2022-08-20T23:44:54.982Z,101142.22
2022-08-20T23:47:43.102Z,101135.66
2022-08-20T23:50:30.793Z,101137.34
2022-08-20T23:53:18.071Z,101135.56
2022-08-20T23:56:05.817Z,101129.53
2022-08-20T23:58:53.317Z,101133.13
